createdAt,value
2023-02-09T00:01:40.854Z,-1.96
2023-02-09T00:04:13.484Z,-2.05
2023-02-09T00:06:45.674Z,-1.86
2023-02-09T00:09:17.966Z,-1.98
2023-02-09T00:12:08.846Z,-2.03
2023-02-09T00:14:41.211Z,-1.94
2023-02-09T00:17:13.946Z,-2.12
2023-02-09T00:19:45.804Z,-2.11
2023-02-09T00:22:18.352Z,-2.11
2023-02-09T00:24:50.685Z,-2.18
2023-02-09T00:27:23.177Z,-2.14
2023-02-09T00:29:55.057Z,-2.20
2023-02-09T00:32:27.602Z,-2.15
2023-02-09T00:34:59.479Z,-2.22
2023-02-09T00:37:36.072Z,-2.18
2023-02-09T00:40:08.832Z,-2.10
2023-02-09T00:42:41.061Z,-2.05
2023-02-09T00:45:13.796Z,-2.08
2023-02-09T00:47:46.373Z,-2.07
2023-02-09T00:50:18.693Z,-2.22
2023-02-09T00:52:51.503Z,-2.16
2023-02-09T00:55:23.705Z,-2.07
2023-02-09T00:57:56.252Z,-2.11
2023-02-09T01:00:28.550Z,-1.96
2023-02-09T01:03:02.777Z,-2.13
2023-02-09T01:05:37.925Z,-2.17
2023-02-09T01:08:11.086Z,-2.09
2023-02-09T01:10:43.353Z,-2.24
2023-02-09T01:13:15.776Z,-2.40
2023-02-09T01:15:48.061Z,-2.34
2023-02-09T01:18:20.589Z,-2.47
2023-02-09T01:20:52.480Z,-2.54
2023-02-09T01:23:25.065Z,-2.49
2023-02-09T01:26:07.419Z,-2.49
2023-02-09T01:28:40.657Z,-2.36
2023-02-09T01:31:22.357Z,-2.30
2023-02-09T01:33:57.694Z,-2.36
2023-02-09T01:36:33.336Z,-2.38
2023-02-09T01:39:06.540Z,-2.35
2023-02-09T01:41:40.816Z,-2.39
2023-02-09T01:44:15.253Z,-2.40
2023-02-09T01:46:48.218Z,-2.52
2023-02-09T01:49:26.705Z,-2.48
2023-02-09T01:52:07.576Z,-2.66
2023-02-09T01:54:55.060Z,-2.54
2023-02-09T01:57:36.777Z,-2.71
2023-02-09T02:00:13.967Z,-2.62
2023-02-09T02:02:58.200Z,-2.63
2023-02-09T02:05:34.908Z,-2.73
2023-02-09T02:08:27.001Z,-2.79
2023-02-09T02:10:58.992Z,-2.73
2023-02-09T02:13:31.698Z,-2.72
2023-02-09T02:16:15.993Z,-2.80
2023-02-09T02:18:57.022Z,-2.77
2023-02-09T02:21:57.221Z,-2.69
2023-02-09T02:24:57.224Z,-2.73
2023-02-09T02:32:10.361Z,-2.92
2023-02-09T02:35:05.671Z,-3.07
2023-02-09T02:38:01.629Z,-3.20
2023-02-09T02:40:55.512Z,-3.24
2023-02-09T02:43:44.162Z,-3.41
2023-02-09T02:46:48.886Z,-3.22
2023-02-09T02:49:41.441Z,-3.30
2023-02-09T02:52:13.413Z,-3.31
2023-02-09T02:54:57.833Z,-3.34
2023-02-09T02:57:34.116Z,-3.40
2023-02-09T03:00:13.863Z,-3.31
2023-02-09T03:02:53.949Z,-3.21
2023-02-09T03:05:28.282Z,-3.27
2023-02-09T03:08:01.161Z,-3.20
2023-02-09T03:10:39.931Z,-3.22
2023-02-09T03:14:00.473Z,-3.24
2023-02-09T03:17:10.500Z,-3.43
2023-02-09T03:19:58.645Z,-3.36
2023-02-09T03:22:47.916Z,-3.33
2023-02-09T03:25:32.024Z,-3.37
2023-02-09T03:28:12.875Z,-3.31
2023-02-09T03:30:50.312Z,-3.35
2023-02-09T03:33:27.790Z,-3.43
2023-02-09T03:36:22.276Z,-3.27
2023-02-09T03:38:54.105Z,-3.31
2023-02-09T03:41:26.829Z,-3.30
2023-02-09T03:44:17.593Z,-3.24
2023-02-09T03:46:50.393Z,-3.31
2023-02-09T03:49:22.728Z,-3.29
2023-02-09T03:51:56.175Z,-3.44
2023-02-09T03:54:33.548Z,-3.13
2023-02-09T03:57:08.285Z,-3.21
2023-02-09T03:59:40.218Z,-3.22
2023-02-09T04:02:13.659Z,-3.27
2023-02-09T04:04:45.637Z,-3.23
2023-02-09T04:07:20.876Z,-3.36
2023-02-09T04:09:52.752Z,-3.42
2023-02-09T04:12:25.458Z,-3.41
2023-02-09T04:14:57.404Z,-3.51
2023-02-09T04:17:29.761Z,-3.43
2023-02-09T04:20:02.508Z,-3.43
2023-02-09T04:22:34.456Z,-3.48
2023-02-09T04:25:07.542Z,-3.51
2023-02-09T04:27:39.408Z,-3.39
2023-02-09T04:30:12.871Z,-3.30
2023-02-09T04:32:45.174Z,-3.36
2023-02-09T04:35:17.127Z,-3.24
2023-02-09T04:37:50.422Z,-3.29
2023-02-09T04:40:22.407Z,-3.27
2023-02-09T04:42:54.702Z,-3.41
2023-02-09T04:45:29.395Z,-3.33
2023-02-09T04:48:02.542Z,-3.47
2023-02-09T04:50:35.301Z,-3.57
2023-02-09T04:53:09.578Z,-3.57
2023-02-09T04:58:55.497Z,-3.51
2023-02-09T05:01:29.746Z,-3.56
2023-02-09T05:04:02.357Z,-3.55
2023-02-09T05:06:34.267Z,-3.61
2023-02-09T05:09:09.955Z,-3.71
2023-02-09T05:11:43.064Z,-3.51
2023-02-09T05:14:36.740Z,-3.57
2023-02-09T05:17:09.838Z,-3.61
2023-02-09T05:19:42.529Z,-3.76
2023-02-09T05:22:15.448Z,-3.76
2023-02-09T05:24:47.347Z,-3.59
2023-02-09T05:27:20.033Z,-3.69
2023-02-09T05:29:52.333Z,-3.59
2023-02-09T05:32:24.443Z,-3.52
2023-02-09T05:34:57.224Z,-3.53
2023-02-09T05:37:29.931Z,-3.54
2023-02-09T05:40:03.200Z,-3.53
2023-02-09T05:42:35.074Z,-3.49
2023-02-09T05:45:08.963Z,-3.08
2023-02-09T05:47:41.364Z,-2.55
2023-02-09T05:50:14.220Z,-3.06
2023-02-09T05:52:46.213Z,-3.41
2023-02-09T05:55:19.430Z,-3.61
2023-02-09T05:57:51.766Z,-3.83
2023-02-09T06:00:25.078Z,-3.75
2023-02-09T06:02:58.881Z,-3.75
2023-02-09T06:05:30.832Z,-3.70
2023-02-09T06:08:03.709Z,-3.68
2023-02-09T06:10:35.654Z,-3.71
2023-02-09T06:16:01.883Z,-3.47
2023-02-09T06:18:34.194Z,-3.48
2023-02-09T06:21:07.305Z,-3.63
2023-02-09T06:23:40.578Z,-3.59
2023-02-09T06:26:16.734Z,-3.66
2023-02-09T06:28:51.977Z,-3.61
2023-02-09T06:31:24.424Z,-3.53
2023-02-09T06:33:57.571Z,-3.47
2023-02-09T06:36:29.528Z,-3.45
2023-02-09T06:39:03.186Z,-3.53
2023-02-09T06:41:35.336Z,-3.46
2023-02-09T06:44:08.284Z,-3.47
2023-02-09T06:46:40.303Z,-3.67
2023-02-09T06:49:13.388Z,-3.65
2023-02-09T06:51:45.520Z,-3.51
2023-02-09T06:54:19.298Z,-3.65
2023-02-09T06:56:51.294Z,-3.69
2023-02-09T06:59:24.298Z,-3.60
2023-02-09T07:01:59.992Z,-3.76
2023-02-09T07:04:33.865Z,-3.83
2023-02-09T07:07:06.187Z,-3.97
2023-02-09T07:09:38.112Z,-3.94
2023-02-09T07:12:13.852Z,-3.88
2023-02-09T07:14:46.217Z,-3.62
2023-02-09T07:17:22.704Z,-3.64
2023-02-09T07:19:54.616Z,-3.46
2023-02-09T07:22:27.124Z,-3.39
2023-02-09T07:24:59.599Z,-3.39
2023-02-09T07:27:31.994Z,-3.27
2023-02-09T07:30:05.304Z,-3.21
2023-02-09T07:32:39.642Z,-3.12
2023-02-09T07:35:11.907Z,-3.07
2023-02-09T07:37:45.252Z,-3.07
2023-02-09T07:40:18.806Z,-3.01
2023-02-09T07:42:54.587Z,-2.99
2023-02-09T07:45:26.580Z,-2.93
2023-02-09T07:47:58.930Z,-2.80
2023-02-09T07:50:31.085Z,-2.80
2023-02-09T07:56:18.053Z,-2.71
2023-02-09T07:58:51.432Z,-2.54
2023-02-09T08:01:24.653Z,-2.48
2023-02-09T08:03:58.388Z,-2.40
2023-02-09T08:06:45.086Z,-2.32
2023-02-09T08:09:18.153Z,-2.31
2023-02-09T08:12:02.699Z,-2.18
2023-02-09T08:14:43.412Z,-2.01
2023-02-09T08:17:24.300Z,-2.00
2023-02-09T08:20:08.743Z,-1.89
2023-02-09T08:22:47.415Z,-1.74
2023-02-09T08:25:23.275Z,-1.72
2023-02-09T08:27:56.307Z,-1.56
2023-02-09T08:30:29.426Z,-1.51
2023-02-09T08:35:56.802Z,-0.88
2023-02-09T08:38:29.451Z,-0.88
2023-02-09T08:41:06.772Z,-0.98
2023-02-09T08:43:41.562Z,-1.15
2023-02-09T08:46:14.213Z,-1.11
2023-02-09T08:48:50.331Z,-1.12
2023-02-09T08:51:22.919Z,-1.19
2023-02-09T08:53:55.942Z,-1.38
2023-02-09T08:56:28.000Z,-1.43
2023-02-09T08:59:01.365Z,-1.44
2023-02-09T09:01:34.423Z,-0.22
2023-02-09T09:04:10.300Z,3.13
2023-02-09T09:06:42.185Z,4.62
2023-02-09T09:09:17.716Z,6.67
2023-02-09T09:11:49.613Z,6.19
2023-02-09T09:14:21.959Z,5.07
2023-02-09T09:16:57.097Z,5.09
2023-02-09T09:19:31.660Z,4.67
2023-02-09T09:22:03.723Z,5.02
2023-02-09T09:24:40.939Z,5.09
2023-02-09T09:27:14.478Z,5.31
2023-02-09T09:29:46.354Z,5.38
2023-02-09T09:32:25.201Z,5.32
2023-02-09T09:34:59.600Z,5.13
2023-02-09T09:37:33.526Z,5.12
2023-02-09T09:40:05.673Z,5.36
2023-02-09T09:42:43.540Z,5.29
2023-02-09T09:45:22.380Z,5.54
2023-02-09T09:47:57.534Z,5.37
2023-02-09T09:50:37.963Z,5.32
2023-02-09T09:53:25.289Z,5.75
2023-02-09T09:56:00.811Z,5.60
2023-02-09T09:58:35.532Z,5.87
2023-02-09T10:01:17.520Z,5.72
2023-02-09T10:03:50.079Z,6.44
2023-02-09T10:06:23.868Z,5.99
2023-02-09T10:08:59.971Z,5.40
2023-02-09T10:11:44.558Z,5.23
2023-02-09T10:14:16.430Z,5.75
2023-02-09T10:16:49.237Z,5.37
2023-02-09T10:19:28.471Z,5.02
2023-02-09T10:22:00.395Z,6.05
2023-02-09T10:24:36.108Z,6.94
2023-02-09T10:27:29.750Z,5.97
2023-02-09T10:30:28.856Z,5.95
2023-02-09T10:33:02.195Z,5.92
2023-02-09T10:35:48.088Z,6.49
2023-02-09T10:38:24.445Z,6.00
2023-02-09T10:40:58.397Z,5.86
2023-02-09T10:43:33.846Z,5.88
2023-02-09T10:46:19.942Z,5.60
2023-02-09T10:48:52.209Z,5.57
2023-02-09T10:51:31.566Z,5.90
2023-02-09T10:54:08.158Z,6.05
2023-02-09T10:56:48.671Z,6.52
2023-02-09T10:59:24.371Z,6.44
2023-02-09T11:02:02.403Z,6.52
2023-02-09T11:04:40.673Z,6.53
2023-02-09T11:07:18.498Z,6.96
2023-02-09T11:09:51.961Z,6.74
2023-02-09T11:12:25.646Z,7.05
2023-02-09T11:14:57.757Z,6.74
2023-02-09T11:17:50.665Z,6.43
2023-02-09T11:20:30.766Z,7.35
2023-02-09T11:23:45.679Z,7.58
2023-02-09T11:26:38.888Z,7.73
2023-02-09T11:29:27.446Z,7.72
2023-02-09T11:32:17.479Z,6.91
2023-02-09T11:35:08.848Z,7.47
2023-02-09T11:37:41.619Z,8.00
2023-02-09T11:40:38.583Z,7.54
2023-02-09T11:43:11.223Z,7.72
2023-02-09T11:45:55.020Z,7.86
2023-02-09T11:48:41.667Z,7.88
2023-02-09T11:51:23.465Z,8.02
2023-02-09T11:54:22.835Z,9.47
2023-02-09T11:57:01.891Z,9.05
2023-02-09T11:59:47.290Z,9.04
2023-02-09T12:02:51.931Z,10.41
2023-02-09T12:05:25.399Z,10.50
2023-02-09T12:08:34.145Z,10.84
2023-02-09T12:11:42.532Z,9.96
2023-02-09T12:14:49.231Z,10.05
2023-02-09T12:17:26.291Z,9.14
2023-02-09T12:20:02.145Z,9.65
2023-02-09T12:22:34.005Z,9.62
2023-02-09T12:25:13.897Z,10.05
2023-02-09T12:28:24.453Z,9.19
2023-02-09T12:31:28.229Z,8.87
2023-02-09T12:34:09.843Z,8.58
2023-02-09T12:37:27.297Z,9.23
2023-02-09T12:40:11.788Z,9.06
2023-02-09T12:42:53.260Z,8.38
2023-02-09T12:45:43.440Z,8.98
2023-02-09T12:48:19.465Z,8.42
2023-02-09T12:50:55.716Z,8.76
2023-02-09T12:53:34.793Z,8.49
2023-02-09T12:56:09.592Z,8.30
2023-02-09T12:58:45.821Z,8.31
2023-02-09T13:01:17.932Z,7.92
2023-02-09T13:04:07.959Z,7.70
2023-02-09T13:06:47.971Z,7.92
2023-02-09T13:09:30.013Z,7.78
2023-02-09T13:12:14.820Z,8.04
2023-02-09T13:14:51.044Z,7.36
2023-02-09T13:18:06.742Z,7.54
2023-02-09T13:21:27.406Z,7.56
2023-02-09T13:24:11.947Z,7.70
2023-02-09T13:27:00.730Z,7.78
2023-02-09T13:29:34.973Z,7.65
2023-02-09T13:32:29.457Z,7.47
2023-02-09T13:35:19.474Z,7.86
2023-02-09T13:38:09.986Z,7.82
2023-02-09T13:40:48.534Z,8.03
2023-02-09T13:43:27.277Z,7.70
2023-02-09T13:46:02.058Z,7.44
2023-02-09T13:48:39.993Z,7.39
2023-02-09T13:51:20.817Z,7.34
2023-02-09T13:53:59.254Z,7.30
2023-02-09T13:56:33.317Z,7.16
2023-02-09T13:59:06.464Z,7.26
2023-02-09T14:01:40.767Z,7.40
2023-02-09T14:04:22.916Z,7.41
2023-02-09T14:07:08.668Z,7.41
2023-02-09T14:09:53.389Z,7.40
2023-02-09T14:12:55.903Z,7.22
2023-02-09T14:15:56.011Z,7.12
2023-02-09T14:18:48.175Z,7.09
2023-02-09T14:21:27.707Z,7.09
2023-02-09T14:23:59.425Z,7.12
2023-02-09T14:26:49.647Z,7.07
2023-02-09T14:29:30.506Z,7.13
2023-02-09T14:32:35.941Z,7.10
2023-02-09T14:35:29.266Z,7.10
2023-02-09T14:38:03.104Z,7.10
2023-02-09T14:40:37.982Z,7.08
2023-02-09T14:43:13.539Z,7.02
2023-02-09T14:45:49.449Z,7.09
2023-02-09T14:48:27.785Z,7.08
2023-02-09T14:51:05.409Z,6.99
2023-02-09T14:53:37.448Z,7.02
2023-02-09T14:56:30.419Z,6.94
2023-02-09T14:59:02.336Z,6.78
2023-02-09T15:01:34.794Z,6.90
2023-02-09T15:04:06.776Z,6.97
2023-02-09T15:06:42.156Z,6.99
2023-02-09T15:09:29.201Z,6.98
2023-02-09T15:12:05.262Z,6.98
2023-02-09T15:14:46.396Z,6.89
2023-02-09T15:17:23.106Z,6.76
2023-02-09T15:19:57.177Z,6.77
2023-02-09T15:22:29.604Z,6.73
2023-02-09T15:25:01.527Z,6.70
2023-02-09T15:27:51.280Z,7.00
2023-02-09T15:30:34.331Z,6.63
2023-02-09T15:33:12.313Z,6.52
2023-02-09T15:35:44.460Z,6.72
2023-02-09T15:38:18.853Z,11.29
2023-02-09T15:41:09.737Z,8.03
2023-02-09T15:44:01.475Z,7.18
2023-02-09T15:46:51.975Z,6.80
2023-02-09T15:49:24.438Z,6.54
2023-02-09T15:51:58.086Z,6.40
2023-02-09T15:54:33.579Z,6.37
2023-02-09T15:57:06.207Z,6.24
2023-02-09T15:59:41.703Z,6.13
2023-02-09T16:02:16.550Z,6.03
2023-02-09T16:04:49.366Z,6.01
2023-02-09T16:07:26.469Z,6.02
2023-02-09T16:09:59.166Z,6.04
2023-02-09T16:12:32.147Z,5.94
2023-02-09T16:15:15.369Z,5.80
2023-02-09T16:17:47.769Z,5.80
2023-02-09T16:20:20.901Z,5.77
2023-02-09T16:22:54.609Z,5.71
2023-02-09T16:25:28.747Z,5.51
2023-02-09T16:28:01.365Z,5.36
2023-02-09T16:30:37.903Z,5.30
2023-02-09T16:33:10.307Z,5.23
2023-02-09T16:35:44.530Z,5.12
2023-02-09T16:38:19.886Z,4.96
2023-02-09T16:40:54.690Z,4.88
2023-02-09T16:43:26.675Z,4.63
2023-02-09T16:46:03.690Z,4.47
2023-02-09T16:48:45.217Z,4.36
2023-02-09T16:51:17.765Z,4.28
2023-02-09T16:53:51.651Z,4.20
2023-02-09T16:56:26.607Z,4.14
2023-02-09T16:58:58.619Z,4.02
2023-02-09T17:01:31.457Z,3.82
2023-02-09T17:04:07.184Z,3.65
2023-02-09T17:06:40.254Z,3.46
2023-02-09T17:09:16.404Z,3.40
2023-02-09T17:11:58.048Z,3.31
2023-02-09T17:14:29.937Z,3.24
2023-02-09T17:17:03.397Z,3.26
2023-02-09T17:19:47.057Z,2.98
2023-02-09T17:22:20.608Z,2.93
2023-02-09T17:24:52.609Z,2.81
2023-02-09T17:27:25.086Z,2.77
2023-02-09T17:29:57.027Z,2.77
2023-02-09T17:32:29.470Z,2.58
2023-02-09T17:35:01.668Z,2.48
2023-02-09T17:37:34.297Z,2.46
2023-02-09T17:40:06.525Z,2.57
2023-02-09T17:42:39.557Z,2.50
2023-02-09T17:45:27.495Z,2.43
2023-02-09T17:48:01.073Z,2.36
2023-02-09T17:50:32.988Z,2.17
2023-02-09T17:53:38.100Z,2.16
2023-02-09T17:56:09.992Z,2.14
2023-02-09T17:58:45.363Z,2.05
2023-02-09T18:01:27.631Z,1.99
2023-02-09T18:04:02.644Z,1.93
2023-02-09T18:06:40.555Z,1.93
2023-02-09T18:09:14.541Z,1.85
2023-02-09T18:11:52.475Z,1.95
2023-02-09T18:14:26.901Z,1.89
2023-02-09T18:16:58.888Z,1.78
2023-02-09T18:19:31.606Z,1.66
2023-02-09T18:22:04.162Z,1.71
2023-02-09T18:24:36.668Z,1.74
2023-02-09T18:27:15.257Z,1.78
2023-02-09T18:29:47.937Z,1.73
2023-02-09T18:32:21.012Z,1.70
2023-02-09T18:34:53.807Z,1.69
2023-02-09T18:37:25.819Z,1.55
2023-02-09T18:39:58.546Z,1.44
2023-02-09T18:42:30.487Z,1.37
2023-02-09T18:45:04.064Z,1.34
2023-02-09T18:47:37.222Z,1.24
2023-02-09T18:50:18.187Z,1.21
2023-02-09T18:52:59.867Z,1.33
2023-02-09T18:55:35.319Z,1.30
2023-02-09T18:58:09.434Z,1.23
2023-02-09T19:00:41.916Z,1.24
2023-02-09T19:03:16.865Z,1.15
2023-02-09T19:05:50.050Z,1.12
2023-02-09T19:08:22.015Z,1.15
2023-02-09T19:10:54.444Z,1.03
2023-02-09T19:13:26.562Z,1.11
2023-02-09T19:15:59.024Z,1.21
2023-02-09T19:18:31.603Z,1.23
2023-02-09T19:21:09.091Z,0.97
2023-02-09T19:23:41.042Z,0.87
2023-02-09T19:26:13.440Z,0.78
2023-02-09T19:28:45.414Z,0.68
2023-02-09T19:31:19.119Z,0.55
2023-02-09T19:33:56.354Z,4.69
2023-02-09T19:36:30.394Z,1.53
2023-02-09T19:39:02.301Z,1.96
2023-02-09T19:41:37.233Z,0.99
2023-02-09T19:44:09.106Z,0.83
2023-02-09T19:46:42.849Z,0.79
2023-02-09T19:49:14.816Z,0.62
2023-02-09T19:51:48.766Z,0.55
2023-02-09T19:54:20.681Z,0.36
2023-02-09T19:56:54.233Z,0.31
2023-02-09T19:59:26.169Z,0.46
2023-02-09T20:01:59.390Z,0.37
2023-02-09T20:04:31.328Z,0.48
2023-02-09T20:07:04.222Z,0.47
2023-02-09T20:09:36.501Z,0.51
2023-02-09T20:12:10.384Z,0.83
2023-02-09T20:14:42.344Z,0.59
2023-02-09T20:17:20.360Z,0.59
2023-02-09T20:19:53.542Z,0.70
2023-02-09T20:22:26.341Z,0.75
2023-02-09T20:24:58.206Z,0.57
2023-02-09T20:27:31.026Z,0.53
2023-02-09T20:30:07.347Z,0.51
2023-02-09T20:32:40.115Z,0.66
2023-02-09T20:35:12.334Z,0.56
2023-02-09T20:37:45.098Z,0.50
2023-02-09T20:40:43.232Z,0.66
2023-02-09T20:43:34.897Z,0.80
2023-02-09T20:46:26.296Z,0.59
2023-02-09T20:49:20.499Z,0.77
2023-02-09T20:51:53.287Z,0.70
2023-02-09T20:54:26.258Z,0.69
2023-02-09T20:56:58.604Z,0.50
2023-02-09T20:59:31.592Z,0.39
2023-02-09T21:02:03.559Z,0.17
2023-02-09T21:04:36.307Z,0.09
2023-02-09T21:07:08.397Z,-0.06
2023-02-09T21:09:41.642Z,-0.14
2023-02-09T21:12:14.569Z,0.08
2023-02-09T21:14:48.118Z,0.01
2023-02-09T21:17:21.001Z,0.06
2023-02-09T21:19:53.736Z,0.16
2023-02-09T21:22:25.664Z,0.10
2023-02-09T21:24:58.776Z,0.12
2023-02-09T21:27:33.011Z,-0.01
2023-02-09T21:30:06.908Z,0.02
2023-02-09T21:32:39.429Z,-0.09
2023-02-09T21:35:12.568Z,-0.20
2023-02-09T21:37:44.494Z,-0.21
2023-02-09T21:40:17.429Z,-0.24
2023-02-09T21:42:50.101Z,-0.31
2023-02-09T21:45:22.662Z,-0.17
2023-02-09T21:47:54.677Z,0.00
2023-02-09T21:50:27.475Z,0.05
2023-02-09T21:53:02.248Z,0.09
2023-02-09T21:55:34.864Z,0.02
2023-02-09T21:58:29.072Z,0.05
2023-02-09T22:01:01.440Z,0.08
2023-02-09T22:03:33.402Z,-0.31
2023-02-09T22:06:07.508Z,-0.15
2023-02-09T22:08:41.361Z,-0.49
2023-02-09T22:11:13.641Z,-0.45
2023-02-09T22:13:45.572Z,-0.12
2023-02-09T22:16:21.195Z,-0.09
2023-02-09T22:18:53.210Z,-0.23
2023-02-09T22:21:26.366Z,-0.30
2023-02-09T22:23:58.208Z,-0.31
2023-02-09T22:26:30.891Z,-0.27
2023-02-09T22:29:03.317Z,-0.21
2023-02-09T22:31:35.594Z,-0.24
2023-02-09T22:34:07.995Z,-0.37
2023-02-09T22:36:40.296Z,-0.46
2023-02-09T22:39:13.248Z,-0.49
2023-02-09T22:41:48.789Z,-0.53
2023-02-09T22:44:21.171Z,-0.43
2023-02-09T22:46:53.511Z,-0.47
2023-02-09T22:49:25.795Z,-0.58
2023-02-09T22:51:57.653Z,-0.46
2023-02-09T22:54:29.963Z,-0.28
2023-02-09T22:57:02.279Z,-0.37
2023-02-09T22:59:36.159Z,-0.47
2023-02-09T23:02:10.510Z,-0.33
2023-02-09T23:04:44.096Z,-0.52
2023-02-09T23:07:38.558Z,-0.62
2023-02-09T23:10:12.089Z,-0.53
2023-02-09T23:12:45.077Z,-0.58
2023-02-09T23:15:18.700Z,-0.75
2023-02-09T23:17:51.000Z,-0.86
2023-02-09T23:20:23.336Z,-0.94
2023-02-09T23:22:56.352Z,-1.01
2023-02-09T23:25:29.291Z,-1.07
2023-02-09T23:28:01.330Z,-1.08
2023-02-09T23:30:34.853Z,-1.08
2023-02-09T23:33:07.109Z,-1.22
2023-02-09T23:35:40.415Z,-1.34
2023-02-09T23:38:12.331Z,-1.29
2023-02-09T23:40:45.598Z,-1.31
2023-02-09T23:43:18.713Z,-1.19
2023-02-09T23:45:52.307Z,-1.26
2023-02-09T23:48:24.398Z,-1.31
2023-02-09T23:51:06.324Z,-1.26
2023-02-09T23:53:39.436Z,-1.12
2023-02-09T23:56:15.107Z,-1.15
2023-02-09T23:58:49.757Z,-1.09
